createdAt,value
2022-10-25T00:01:50.472Z,1.30
2022-10-25T00:07:13.361Z,1.30
2022-10-25T00:09:51.994Z,1.53
2022-10-25T00:12:20.751Z,1.27
2022-10-25T00:14:49.200Z,1.10
2022-10-25T00:17:17.698Z,1.40
2022-10-25T00:19:46.447Z,1.13
2022-10-25T00:22:16.681Z,1.73
2022-10-25T00:24:45.595Z,2.20
2022-10-25T00:27:14.097Z,1.50
2022-10-25T00:29:42.849Z,1.30
2022-10-25T00:32:11.755Z,2.07
2022-10-25T00:35:00.170Z,1.40
2022-10-25T00:37:37.053Z,1.70
2022-10-25T00:40:12.324Z,1.93
2022-10-25T00:42:47.461Z,1.77
2022-10-25T00:45:24.238Z,1.50
2022-10-25T00:47:58.387Z,1.40
2022-10-25T00:50:47.625Z,1.80
2022-10-25T00:53:22.652Z,1.43
2022-10-25T00:55:59.519Z,2.30
2022-10-25T00:58:40.881Z,1.83
2022-10-25T01:01:13.814Z,1.80
2022-10-25T01:03:46.296Z,2.10
2022-10-25T01:06:20.313Z,1.50
2022-10-25T01:08:53.235Z,1.90
2022-10-25T01:11:23.800Z,1.90
2022-10-25T01:14:00.102Z,1.80
2022-10-25T01:16:37.622Z,1.53
2022-10-25T01:19:37.477Z,1.53
2022-10-25T01:22:13.655Z,3.53
2022-10-25T01:25:08.040Z,2.00
2022-10-25T01:30:28.127Z,1.40
2022-10-25T01:33:13.738Z,3.27
2022-10-25T01:35:49.759Z,1.40
2022-10-25T01:38:31.679Z,1.67
2022-10-25T01:41:10.917Z,1.27
2022-10-25T01:43:48.171Z,1.80
2022-10-25T01:46:25.775Z,1.30
2022-10-25T01:49:05.336Z,1.83
2022-10-25T01:51:38.223Z,1.40
2022-10-25T01:54:19.484Z,1.50
2022-10-25T01:56:59.104Z,0.90
2022-10-25T01:59:51.280Z,1.20
2022-10-25T02:02:36.555Z,1.30
2022-10-25T02:05:17.682Z,0.93
2022-10-25T02:07:59.801Z,2.03
2022-10-25T02:10:33.825Z,2.07
2022-10-25T02:13:06.594Z,1.27
2022-10-25T02:15:41.663Z,1.47
2022-10-25T02:18:16.474Z,1.53
2022-10-25T02:20:47.689Z,2.40
2022-10-25T02:23:18.756Z,1.43
2022-10-25T02:25:48.527Z,1.07
2022-10-25T02:28:20.315Z,1.33
2022-10-25T02:30:51.239Z,1.40
2022-10-25T02:33:19.321Z,1.43
2022-10-25T02:36:06.446Z,1.60
2022-10-25T02:38:35.235Z,1.77
2022-10-25T02:41:05.865Z,1.33
2022-10-25T02:43:34.594Z,1.70
2022-10-25T02:46:08.063Z,1.10
2022-10-25T02:48:36.631Z,1.50
2022-10-25T02:51:06.852Z,2.07
2022-10-25T02:53:35.773Z,1.77
2022-10-25T02:56:06.284Z,1.50
2022-10-25T02:58:38.465Z,1.50
2022-10-25T03:01:08.405Z,1.47
2022-10-25T03:03:37.701Z,1.40
2022-10-25T03:06:08.164Z,1.43
2022-10-25T03:08:36.794Z,1.37
2022-10-25T03:11:05.890Z,1.77
2022-10-25T03:13:34.121Z,1.70
2022-10-25T03:16:02.648Z,1.50
2022-10-25T03:18:30.853Z,1.80
2022-10-25T03:21:00.185Z,1.67
2022-10-25T03:23:30.948Z,1.40
2022-10-25T03:26:01.071Z,1.10
2022-10-25T03:28:30.365Z,2.10
2022-10-25T03:30:59.738Z,1.70
2022-10-25T03:33:28.857Z,1.90
2022-10-25T03:35:57.532Z,1.10
2022-10-25T03:38:26.019Z,3.40
2022-10-25T03:40:56.560Z,1.63
2022-10-25T03:43:25.086Z,1.23
2022-10-25T03:45:53.202Z,1.30
2022-10-25T03:48:21.390Z,2.10
2022-10-25T03:50:49.444Z,1.47
2022-10-25T03:53:17.882Z,1.40
2022-10-25T03:55:45.953Z,1.70
2022-10-25T03:58:15.586Z,1.93
2022-10-25T04:00:43.852Z,1.47
2022-10-25T04:03:12.203Z,1.37
2022-10-25T04:05:40.330Z,1.37
2022-10-25T04:08:09.200Z,2.27
2022-10-25T04:10:37.614Z,1.03
2022-10-25T04:13:05.789Z,1.77
2022-10-25T04:15:35.428Z,1.80
2022-10-25T04:18:03.780Z,1.10
2022-10-25T04:20:32.269Z,1.60
2022-10-25T04:23:01.658Z,1.37
2022-10-25T04:25:30.542Z,1.60
2022-10-25T04:28:00.343Z,1.43
2022-10-25T04:30:28.628Z,1.40
2022-10-25T04:33:00.101Z,1.70
2022-10-25T04:35:28.501Z,1.50
2022-10-25T04:37:58.744Z,1.57
2022-10-25T04:40:27.423Z,1.50
2022-10-25T04:42:55.781Z,1.50
2022-10-25T04:45:24.496Z,1.77
2022-10-25T04:47:52.719Z,1.70
2022-10-25T04:50:22.431Z,1.50
2022-10-25T04:52:50.616Z,1.20
2022-10-25T04:55:18.833Z,2.10
2022-10-25T04:57:47.358Z,1.30
2022-10-25T05:00:15.937Z,1.83
2022-10-25T05:02:44.340Z,1.47
2022-10-25T05:05:12.550Z,1.70
2022-10-25T05:07:42.011Z,1.33
2022-10-25T05:10:10.717Z,1.67
2022-10-25T05:12:39.161Z,1.33
2022-10-25T05:15:08.432Z,2.37
2022-10-25T05:17:36.512Z,1.80
2022-10-25T05:20:05.231Z,1.70
2022-10-25T05:22:33.389Z,1.30
2022-10-25T05:25:03.000Z,1.60
2022-10-25T05:27:31.081Z,1.47
2022-10-25T05:29:59.206Z,1.87
2022-10-25T05:32:27.312Z,1.87
2022-10-25T05:34:55.434Z,1.43
2022-10-25T05:37:23.640Z,1.47
2022-10-25T05:39:51.809Z,1.60
2022-10-25T05:42:21.383Z,1.80
2022-10-25T05:44:49.406Z,1.70
2022-10-25T05:47:17.527Z,1.63
2022-10-25T05:49:45.623Z,1.73
2022-10-25T05:52:13.728Z,2.03
2022-10-25T05:54:42.040Z,2.00
2022-10-25T05:57:10.599Z,1.60
2022-10-25T05:59:41.199Z,1.23
2022-10-25T06:02:11.042Z,1.53
2022-10-25T06:04:39.249Z,1.67
2022-10-25T06:07:07.234Z,1.63
2022-10-25T06:09:35.534Z,1.67
2022-10-25T06:12:05.009Z,1.77
2022-10-25T06:14:35.610Z,2.80
2022-10-25T06:17:05.296Z,2.03
2022-10-25T06:19:33.311Z,1.90
2022-10-25T06:22:02.045Z,5.10
2022-10-25T06:24:30.424Z,1.70
2022-10-25T06:26:59.110Z,1.47
2022-10-25T06:29:28.123Z,1.30
2022-10-25T06:31:58.527Z,1.97
2022-10-25T06:34:28.247Z,1.60
2022-10-25T06:36:56.319Z,1.60
2022-10-25T06:39:24.917Z,1.80
2022-10-25T06:41:53.298Z,1.30
2022-10-25T06:44:21.592Z,2.07
2022-10-25T06:47:17.023Z,1.20
2022-10-25T06:49:39.468Z,1.43
2022-10-25T06:52:07.574Z,1.60
2022-10-25T06:54:35.914Z,1.37
2022-10-25T06:57:04.138Z,1.20
2022-10-25T06:59:32.258Z,1.40
2022-10-25T07:02:00.736Z,1.70
2022-10-25T07:04:32.550Z,1.70
2022-10-25T07:07:02.978Z,1.20
2022-10-25T07:09:31.443Z,1.53
2022-10-25T07:11:59.644Z,2.20
2022-10-25T07:14:27.668Z,2.23
2022-10-25T07:16:56.339Z,1.80
2022-10-25T07:19:24.809Z,2.20
2022-10-25T07:21:53.178Z,1.13
2022-10-25T07:24:22.769Z,1.10
2022-10-25T07:26:50.974Z,1.47
2022-10-25T07:29:19.239Z,1.50
2022-10-25T07:31:47.581Z,1.33
2022-10-25T07:34:16.690Z,1.40
2022-10-25T07:36:45.161Z,1.40
2022-10-25T07:39:13.778Z,1.97
2022-10-25T07:41:44.597Z,1.63
2022-10-25T07:44:16.724Z,1.40
2022-10-25T07:46:46.234Z,2.20
2022-10-25T07:49:14.571Z,2.97
2022-10-25T07:51:43.019Z,1.87
2022-10-25T07:54:11.352Z,1.53
2022-10-25T07:56:39.665Z,1.40
2022-10-25T07:59:09.741Z,1.60
2022-10-25T08:01:40.661Z,1.53
2022-10-25T08:04:09.425Z,1.30
2022-10-25T08:06:37.618Z,2.80
2022-10-25T08:09:14.440Z,2.40
2022-10-25T08:11:43.461Z,7.10
2022-10-25T08:14:13.100Z,2.13
2022-10-25T08:16:41.259Z,10.53
2022-10-25T08:19:09.823Z,5.13
2022-10-25T08:21:37.886Z,6.77
2022-10-25T08:24:06.901Z,5.50
2022-10-25T08:26:36.986Z,27.60
2022-10-25T08:29:05.769Z,35.90
2022-10-25T08:31:36.389Z,11.67
2022-10-25T08:34:05.168Z,3.80
2022-10-25T08:36:33.669Z,7.13
2022-10-25T08:39:04.923Z,4.77
2022-10-25T08:41:44.363Z,4.13
2022-10-25T08:44:29.374Z,3.00
2022-10-25T08:47:03.881Z,2.03
2022-10-25T08:49:43.086Z,2.10
2022-10-25T08:52:19.484Z,1.20
2022-10-25T08:54:49.004Z,1.90
2022-10-25T08:57:27.942Z,3.07
2022-10-25T09:02:59.997Z,1.90
2022-10-25T09:05:52.106Z,2.13
2022-10-25T09:08:36.022Z,2.03
2022-10-25T09:11:18.686Z,1.70
2022-10-25T09:13:56.113Z,1.50
2022-10-25T09:16:34.215Z,1.87
2022-10-25T09:19:42.685Z,1.90
2022-10-25T09:22:28.578Z,1.90
2022-10-25T09:28:27.308Z,1.50
2022-10-25T09:30:58.543Z,1.43
2022-10-25T09:33:46.471Z,1.60
2022-10-25T09:36:17.531Z,1.30
2022-10-25T09:41:30.762Z,1.60
2022-10-25T09:44:04.892Z,1.63
2022-10-25T09:46:49.034Z,1.43
2022-10-25T09:52:44.834Z,3.50
2022-10-25T09:58:34.145Z,1.73
2022-10-25T10:04:32.599Z,4.93
2022-10-25T10:12:35.181Z,1.47
2022-10-25T10:21:13.111Z,1.47
2022-10-25T10:49:24.377Z,1.90
2022-10-25T13:54:07.190Z,1.90
2022-10-25T13:56:49.787Z,2.03
2022-10-25T13:59:41.805Z,1.43
2022-10-25T14:02:24.316Z,1.20
2022-10-25T14:08:38.469Z,2.90
2022-10-25T14:12:00.545Z,2.33
2022-10-25T14:14:40.949Z,2.40
2022-10-25T14:34:36.991Z,1.40
2022-10-25T17:48:05.354Z,2.30
2022-10-25T18:23:33.496Z,5.03
2022-10-25T18:26:17.563Z,3.30
2022-10-25T18:28:47.126Z,2.63
2022-10-25T18:48:54.488Z,3.20
2022-10-25T18:58:20.995Z,3.30
2022-10-25T19:28:15.469Z,5.03
2022-10-25T19:30:50.927Z,4.43
2022-10-25T19:59:59.744Z,3.47
2022-10-25T20:12:35.860Z,2.97
2022-10-25T20:15:20.140Z,3.47
2022-10-25T20:21:11.528Z,2.60
2022-10-25T20:23:43.423Z,2.00
2022-10-25T20:26:14.674Z,2.03
2022-10-25T20:28:45.607Z,2.20
2022-10-25T20:31:14.887Z,2.10
2022-10-25T20:33:43.811Z,2.20
2022-10-25T20:36:23.858Z,2.50
2022-10-25T20:38:53.933Z,2.20
2022-10-25T20:41:28.552Z,2.37
2022-10-25T20:44:08.735Z,2.03
2022-10-25T20:46:38.785Z,2.17
2022-10-25T20:49:07.956Z,1.90
2022-10-25T20:51:38.961Z,2.13
2022-10-25T20:54:35.133Z,2.30
2022-10-25T20:57:03.786Z,2.17
2022-10-25T20:59:56.681Z,3.50
2022-10-25T21:02:28.687Z,2.03
2022-10-25T21:08:12.270Z,2.17
2022-10-25T21:10:43.042Z,2.23
2022-10-25T21:13:12.476Z,2.37
2022-10-25T21:15:46.681Z,2.87
2022-10-25T21:18:18.978Z,2.30
2022-10-25T21:20:51.462Z,1.97
2022-10-25T21:23:22.361Z,2.27
2022-10-25T21:28:43.841Z,2.00
2022-10-25T21:31:15.737Z,2.13
2022-10-25T21:33:49.952Z,2.23
2022-10-25T21:36:21.417Z,2.00
2022-10-25T21:38:56.434Z,3.00
2022-10-25T21:41:27.296Z,2.37
2022-10-25T21:43:56.702Z,2.17
2022-10-25T21:46:38.187Z,2.37
2022-10-25T21:49:06.563Z,2.10
2022-10-25T21:51:34.740Z,1.63
2022-10-25T21:54:04.332Z,2.13
2022-10-25T21:56:32.996Z,2.00
2022-10-25T21:59:01.497Z,2.00
2022-10-25T22:01:32.186Z,1.70
2022-10-25T22:04:00.955Z,1.60
2022-10-25T22:06:29.216Z,2.10
2022-10-25T22:08:58.045Z,1.80
2022-10-25T22:11:28.933Z,1.60
2022-10-25T22:13:58.144Z,2.03
2022-10-25T22:16:27.106Z,1.80
2022-10-25T22:18:59.376Z,1.57
2022-10-25T22:21:31.090Z,2.17
2022-10-25T22:23:59.544Z,1.80
2022-10-25T22:26:28.667Z,1.93
2022-10-25T22:28:59.381Z,2.67
2022-10-25T22:31:31.735Z,2.53
2022-10-25T22:34:03.337Z,3.03
2022-10-25T22:36:33.402Z,3.00
2022-10-25T22:39:01.962Z,2.20
2022-10-25T22:41:31.190Z,1.87
2022-10-25T22:43:59.543Z,1.60
2022-10-25T22:46:29.194Z,2.43
2022-10-25T22:49:07.465Z,1.67
2022-10-25T22:51:42.745Z,1.90
2022-10-25T22:54:16.340Z,1.50
2022-10-25T22:56:50.120Z,1.83
2022-10-25T22:59:22.533Z,1.53
2022-10-25T23:01:51.057Z,1.70
2022-10-25T23:04:22.528Z,1.60
2022-10-25T23:07:08.064Z,1.30
2022-10-25T23:09:53.623Z,1.50
2022-10-25T23:12:24.583Z,1.10
2022-10-25T23:15:04.938Z,1.03
2022-10-25T23:17:37.191Z,1.10
2022-10-25T23:20:09.119Z,0.97
2022-10-25T23:22:52.145Z,0.93
2022-10-25T23:25:21.550Z,0.90
2022-10-25T23:27:53.567Z,0.87
2022-10-25T23:30:31.595Z,0.90
2022-10-25T23:33:02.465Z,0.97
2022-10-25T23:35:31.573Z,0.90
2022-10-25T23:38:05.316Z,0.83
2022-10-25T23:40:36.125Z,0.80
2022-10-25T23:43:27.524Z,0.77
2022-10-25T23:45:57.746Z,0.70
2022-10-25T23:48:28.494Z,0.80
2022-10-25T23:51:07.672Z,1.77
2022-10-25T23:53:46.508Z,0.70
2022-10-25T23:56:16.672Z,0.70
2022-10-25T23:59:03.099Z,0.70
